Time;durP1;ratioP1;P1;durP2;ratioP2;P2;SDS_P1;SDS_P2;PMS_P1;PMS_P2;Temp;Humidity;BMP_temperature;BMP_pressure;BME280_temperature;BME280_humidity;BME280_pressure;Samples;Min_cycle;Max_cycle;Signal;HPM_P1;HPM_P2
2022/03/04 00:00:22;;;;;;;22.92;14.40;;;6.80;99.90;;;;;;5035563;28;20644;-78
2022/03/04 00:02:47;;;;;;;28.17;13.57;;;6.60;99.90;;;;;;5035411;28;20164;-78
2022/03/04 00:05:13;;;;;;;29.48;15.27;;;6.60;99.90;;;;;;5035342;28;20199;-77
2022/03/04 00:07:39;;;;;;;26.02;15.80;;;6.50;99.90;;;;;;5035537;28;20190;-77
2022/03/04 00:10:05;;;;;;;29.20;16.00;;;6.40;99.90;;;;;;5035202;28;20168;-77
2022/03/04 00:12:30;;;;;;;30.13;15.82;;;6.40;99.90;;;;;;5034735;28;20293;-78
2022/03/04 00:14:56;;;;;;;22.17;13.68;;;6.40;99.90;;;;;;5034877;28;20269;-79
2022/03/04 00:17:22;;;;;;;23.85;14.43;;;6.30;99.90;;;;;;5033848;28;20269;-77
2022/03/04 00:19:47;;;;;;;26.13;14.05;;;6.30;99.90;;;;;;5035190;28;20171;-78
2022/03/04 00:22:16;;;;;;;28.88;15.00;;;6.40;99.90;;;;;;5034990;28;20168;-78
2022/03/04 00:24:42;;;;;;;23.90;13.57;;;6.10;99.90;;;;;;5034401;28;20207;-77
2022/03/04 00:27:07;;;;;;;19.45;13.43;;;6.10;99.90;;;;;;5035160;28;20636;-77
2022/03/04 00:29:33;;;;;;;24.15;14.93;;;6.00;99.90;;;;;;5035016;28;20258;-77
2022/03/04 00:31:58;;;;;;;22.02;14.63;;;5.80;99.90;;;;;;5036317;28;20307;-76
2022/03/04 00:34:25;;;;;;;25.25;14.45;;;5.80;99.90;;;;;;5036600;28;20873;-77
2022/03/04 00:36:51;;;;;;;30.60;15.55;;;5.70;99.90;;;;;;5036978;28;20168;-76
2022/03/04 00:39:17;;;;;;;27.23;16.15;;;5.70;99.90;;;;;;5037305;28;20160;-77
2022/03/04 00:41:43;;;;;;;21.13;13.15;;;5.70;99.90;;;;;;5034840;28;20182;-78
2022/03/04 00:44:09;;;;;;;28.05;14.00;;;5.80;99.90;;;;;;5035046;28;20589;-78
2022/03/04 00:46:35;;;;;;;25.27;15.88;;;5.80;99.90;;;;;;5034812;28;20195;-78
2022/03/04 00:49:01;;;;;;;21.13;13.20;;;5.70;99.90;;;;;;5034982;28;20172;-78
2022/03/04 00:51:27;;;;;;;24.52;14.50;;;5.60;99.90;;;;;;5034682;28;20203;-78
2022/03/04 00:53:53;;;;;;;21.60;13.50;;;5.60;99.90;;;;;;5034762;28;20191;-78
2022/03/04 00:56:18;;;;;;;27.17;15.50;;;5.80;99.90;;;;;;5034704;28;20715;-78
2022/03/04 00:58:44;;;;;;;22.08;14.25;;;5.60;99.90;;;;;;5034721;28;20293;-78
2022/03/04 01:01:10;;;;;;;20.35;13.10;;;5.60;99.90;;;;;;5034203;28;20205;-78
2022/03/04 01:03:35;;;;;;;24.67;13.93;;;5.60;99.90;;;;;;5034699;28;20175;-78
2022/03/04 01:06:03;;;;;;;23.35;13.23;;;5.60;99.90;;;;;;5034626;28;20219;-78
2022/03/04 01:08:29;;;;;;;26.13;14.20;;;5.40;99.90;;;;;;5033846;28;20249;-78
2022/03/04 01:10:55;;;;;;;24.17;13.95;;;5.40;99.90;;;;;;5033015;28;20234;-79
2022/03/04 01:13:21;;;;;;;32.33;14.32;;;5.40;99.90;;;;;;5034488;28;20176;-79
2022/03/04 01:15:47;;;;;;;28.48;14.05;;;5.50;99.90;;;;;;5034131;28;20267;-79
2022/03/04 01:18:13;;;;;;;21.08;12.93;;;5.40;99.90;;;;;;5034516;28;20214;-78
2022/03/04 01:20:39;;;;;;;34.22;14.93;;;5.50;99.90;;;;;;5034432;28;20191;-78
2022/03/04 01:23:04;;;;;;;21.25;13.48;;;5.70;99.90;;;;;;5034116;28;20617;-79
2022/03/04 01:25:30;;;;;;;17.27;12.65;;;5.70;99.90;;;;;;5033999;28;20710;-79
2022/03/04 01:27:56;;;;;;;37.83;14.32;;;5.70;99.90;;;;;;5033541;28;20186;-79
2022/03/04 01:30:21;;;;;;;28.30;14.43;;;5.70;99.90;;;;;;5033813;28;20625;-77
2022/03/04 01:32:47;;;;;;;30.48;13.80;;;5.90;99.90;;;;;;5033580;28;20298;-79
2022/03/04 01:35:13;;;;;;;22.30;13.73;;;5.80;99.90;;;;;;5034063;28;20207;-78
2022/03/04 01:37:40;;;;;;;19.42;13.65;;;5.60;99.90;;;;;;5033784;28;20164;-79
2022/03/04 01:40:09;;;;;;;24.65;13.57;;;5.50;99.90;;;;;;5032564;28;20826;-79
2022/03/04 01:42:35;;;;;;;21.60;13.20;;;5.50;99.90;;;;;;5033816;28;20164;-80
2022/03/04 01:45:02;;;;;;;30.50;13.93;;;5.50;99.90;;;;;;5034083;28;20192;-79
2022/03/04 01:47:28;;;;;;;19.75;13.40;;;5.50;99.90;;;;;;5034063;28;20156;-78
2022/03/04 01:49:53;;;;;;;22.33;12.88;;;5.50;99.90;;;;;;5032796;28;20657;-77
2022/03/04 01:52:20;;;;;;;37.95;13.10;;;5.40;99.90;;;;;;5033814;28;20208;-78
2022/03/04 01:54:46;;;;;;;23.17;12.80;;;5.30;99.90;;;;;;5034304;28;20289;-79
2022/03/04 01:57:11;;;;;;;22.08;13.68;;;5.20;99.90;;;;;;5032492;28;20651;-78
2022/03/04 01:59:37;;;;;;;25.58;13.35;;;5.50;99.90;;;;;;5032374;28;20274;-76
2022/03/04 02:02:03;;;;;;;25.85;12.18;;;5.30;99.90;;;;;;5034041;28;20164;-77
2022/03/04 02:04:29;;;;;;;22.05;13.43;;;5.30;99.90;;;;;;5033328;28;20656;-78
2022/03/04 02:06:54;;;;;;;16.45;11.60;;;5.30;99.90;;;;;;5032443;28;20171;-78
2022/03/04 02:09:20;;;;;;;25.50;13.07;;;5.30;99.90;;;;;;5033458;28;20160;-77
2022/03/04 02:11:48;;;;;;;20.95;12.68;;;5.30;99.90;;;;;;5032001;28;20223;-77
2022/03/04 02:14:14;;;;;;;21.27;12.60;;;5.20;99.90;;;;;;5033682;28;20167;-77
2022/03/04 02:16:51;;;;;;;20.55;12.23;;;5.30;99.90;;;;;;5033434;28;20644;-78
2022/03/04 02:19:18;;;;;;;21.65;12.20;;;5.30;99.90;;;;;;5032781;28;20167;-78
2022/03/04 02:21:56;;;;;;;26.05;12.70;;;5.50;99.90;;;;;;5032004;28;20198;-78
2022/03/04 02:24:24;;;;;;;20.38;12.25;;;5.40;99.90;;;;;;5033236;28;20229;-79
2022/03/04 02:26:54;;;;;;;20.45;12.65;;;5.30;99.90;;;;;;5033378;28;20166;-78
2022/03/04 02:29:22;;;;;;;19.33;12.88;;;5.30;99.90;;;;;;5033286;28;20168;-78
2022/03/04 02:31:48;;;;;;;20.98;12.43;;;5.10;99.90;;;;;;5033140;28;20199;-77
2022/03/04 02:34:14;;;;;;;20.27;13.45;;;5.10;99.90;;;;;;5033229;28;20568;-77
2022/03/04 02:36:39;;;;;;;23.77;11.70;;;5.20;99.90;;;;;;5033205;28;20170;-79
2022/03/04 02:39:06;;;;;;;17.25;11.30;;;5.00;99.90;;;;;;5032915;28;20251;-78
2022/03/04 02:41:36;;;;;;;18.98;12.38;;;5.20;99.90;;;;;;5031947;28;20262;-78
2022/03/04 02:44:03;;;;;;;19.70;12.68;;;5.20;99.90;;;;;;5033183;28;20527;-77
2022/03/04 02:46:29;;;;;;;21.80;12.65;;;5.10;99.90;;;;;;5031163;28;20192;-78
2022/03/04 02:48:55;;;;;;;21.15;13.00;;;5.20;99.90;;;;;;5033106;28;20191;-78
2022/03/04 02:51:20;;;;;;;19.70;11.77;;;5.20;99.90;;;;;;5031674;28;20196;-79
2022/03/04 02:53:46;;;;;;;23.02;13.05;;;5.30;99.90;;;;;;5033506;28;20171;-78
2022/03/04 02:56:13;;;;;;;19.60;11.82;;;5.20;99.90;;;;;;5033345;28;20668;-77
2022/03/04 02:58:39;;;;;;;21.60;12.50;;;5.10;99.90;;;;;;5033116;28;20669;-78
2022/03/04 03:01:05;;;;;;;20.05;12.60;;;5.10;99.90;;;;;;5033014;28;20176;-78
2022/03/04 03:03:31;;;;;;;19.58;12.70;;;5.20;99.90;;;;;;5015235;28;20226;-80
2022/03/04 03:05:57;;;;;;;26.42;12.20;;;5.20;99.90;;;;;;5032887;28;20581;-78
2022/03/04 03:08:23;;;;;;;16.95;11.02;;;5.20;99.90;;;;;;5033013;28;20202;-78
2022/03/04 03:10:49;;;;;;;15.48;11.38;;;5.30;99.90;;;;;;5032923;28;20156;-78
2022/03/04 03:13:15;;;;;;;19.88;12.32;;;5.30;99.90;;;;;;5032916;28;20523;-78
2022/03/04 03:15:40;;;;;;;18.75;12.88;;;5.40;99.90;;;;;;5033050;28;20180;-79
2022/03/04 03:18:06;;;;;;;18.88;12.30;;;5.40;99.90;;;;;;5032878;28;20180;-78
2022/03/04 03:20:32;;;;;;;21.23;12.75;;;5.50;99.90;;;;;;5032938;28;20218;-78
2022/03/04 03:22:57;;;;;;;19.92;10.70;;;5.50;99.90;;;;;;5033095;28;20172;-78
2022/03/04 03:25:23;;;;;;;16.65;11.57;;;5.60;99.90;;;;;;5032449;28;20207;-77
2022/03/04 03:27:48;;;;;;;23.27;11.43;;;5.50;99.90;;;;;;5032952;28;20179;-77
2022/03/04 03:30:14;;;;;;;19.20;12.40;;;5.50;99.90;;;;;;5032799;28;20233;-78
2022/03/04 03:32:40;;;;;;;17.92;11.27;;;5.40;99.90;;;;;;5036066;28;20231;-79
2022/03/04 03:35:09;;;;;;;21.48;12.02;;;5.50;99.90;;;;;;5036339;28;20259;-79
2022/03/04 03:37:38;;;;;;;21.33;12.15;;;5.40;99.90;;;;;;5036501;28;20195;-80
2022/03/04 03:40:09;;;;;;;19.75;11.75;;;5.60;99.90;;;;;;5036151;28;20179;-79
2022/03/04 03:42:35;;;;;;;22.45;12.25;;;5.50;99.90;;;;;;5036404;28;20218;-79
2022/03/04 03:45:01;;;;;;;18.30;11.40;;;5.30;99.90;;;;;;5036309;28;20184;-79
2022/03/04 03:47:27;;;;;;;14.85;10.73;;;5.30;99.90;;;;;;5036238;28;20263;-77
2022/03/04 03:49:52;;;;;;;19.65;11.85;;;5.50;99.90;;;;;;5036202;28;20672;-78
2022/03/04 03:52:18;;;;;;;23.88;12.10;;;5.50;99.90;;;;;;5036508;28;20548;-78
2022/03/04 03:54:44;;;;;;;16.83;11.13;;;5.50;99.90;;;;;;5035956;28;20191;-78
2022/03/04 03:57:10;;;;;;;18.33;11.80;;;5.40;99.90;;;;;;5036291;28;20572;-79
2022/03/04 03:59:37;;;;;;;16.10;11.27;;;5.30;99.90;;;;;;5036178;28;20164;-78
2022/03/04 04:02:03;;;;;;;15.50;11.45;;;5.40;99.90;;;;;;5036858;28;20645;-80
2022/03/04 04:04:34;;;;;;;15.05;11.50;;;5.40;99.90;;;;;;5036169;28;20264;-81
2022/03/04 04:07:04;;;;;;;18.58;10.77;;;5.50;99.90;;;;;;5037638;28;20164;-78
2022/03/04 04:09:30;;;;;;;20.85;11.35;;;5.30;99.90;;;;;;5038064;28;20168;-79
2022/03/04 04:11:56;;;;;;;17.42;10.85;;;5.10;99.90;;;;;;5037834;28;20984;-81
2022/03/04 04:14:21;;;;;;;16.20;11.68;;;4.90;99.90;;;;;;5036270;28;20637;-78
2022/03/04 04:16:47;;;;;;;19.83;12.30;;;4.90;99.90;;;;;;5037500;28;20334;-79
2022/03/04 04:19:13;;;;;;;18.95;11.00;;;5.10;99.90;;;;;;5039132;28;20163;-78
2022/03/04 04:21:39;;;;;;;17.02;10.68;;;5.10;99.90;;;;;;5036703;28;20533;-80
2022/03/04 04:24:05;;;;;;;17.17;11.07;;;5.00;99.90;;;;;;5036104;28;20644;-78
2022/03/04 04:26:30;;;;;;;14.30;10.10;;;4.80;99.90;;;;;;5036559;28;20187;-78
2022/03/04 04:28:56;;;;;;;21.90;12.38;;;5.00;99.90;;;;;;5037019;28;20719;-78
2022/03/04 04:31:22;;;;;;;16.33;10.75;;;5.00;99.90;;;;;;5037522;28;20195;-76
2022/03/04 04:33:47;;;;;;;19.38;11.73;;;5.00;99.90;;;;;;5039363;28;20233;-77
2022/03/04 04:36:13;;;;;;;15.50;11.50;;;4.90;99.90;;;;;;5040447;28;20663;-78
2022/03/04 04:38:39;;;;;;;15.38;10.77;;;4.90;99.90;;;;;;5039412;28;20167;-79
2022/03/04 04:41:06;;;;;;;18.80;10.35;;;5.00;99.90;;;;;;5034769;28;20183;-79
2022/03/04 04:43:32;;;;;;;17.60;11.18;;;5.00;99.90;;;;;;5033881;28;20164;-77
2022/03/04 04:45:57;;;;;;;17.23;11.25;;;4.90;99.90;;;;;;5034498;28;20190;-78
2022/03/04 04:48:23;;;;;;;21.70;11.93;;;4.70;99.90;;;;;;5034684;28;20168;-77
2022/03/04 04:50:48;;;;;;;20.90;11.68;;;4.70;99.90;;;;;;5034287;28;20251;-77
2022/03/04 04:53:14;;;;;;;18.77;10.80;;;4.80;99.90;;;;;;5034388;28;20290;-77
2022/03/04 04:55:40;;;;;;;15.70;10.10;;;4.80;99.90;;;;;;5033092;28;20271;-78
2022/03/04 04:58:06;;;;;;;13.63;9.90;;;4.70;99.90;;;;;;5034011;28;20168;-77
2022/03/04 05:00:31;;;;;;;20.42;11.80;;;4.70;99.90;;;;;;5033841;28;20161;-77
2022/03/04 05:02:57;;;;;;;15.13;10.80;;;4.90;99.90;;;;;;5033890;28;20589;-77
2022/03/04 05:05:23;;;;;;;18.48;11.10;;;4.90;99.90;;;;;;5034007;28;20183;-77
2022/03/04 05:07:49;;;;;;;23.13;11.07;;;4.80;99.90;;;;;;5034250;28;20171;-77
2022/03/04 05:10:14;;;;;;;26.33;10.65;;;4.80;99.90;;;;;;5034006;28;20663;-78
2022/03/04 05:12:40;;;;;;;22.58;11.57;;;4.70;99.90;;;;;;5034022;28;20211;-77
2022/03/04 05:15:09;;;;;;;19.70;11.23;;;4.60;99.90;;;;;;5034001;28;20184;-78
2022/03/04 05:17:34;;;;;;;15.32;9.95;;;4.70;99.90;;;;;;5033646;28;20251;-77
2022/03/04 05:20:00;;;;;;;19.20;11.55;;;4.50;99.90;;;;;;5034540;28;20243;-78
2022/03/04 05:22:26;;;;;;;21.48;9.40;;;4.60;99.90;;;;;;5034198;28;20174;-78
2022/03/04 05:24:51;;;;;;;17.50;10.77;;;4.50;99.90;;;;;;5034289;28;20203;-79
2022/03/04 05:27:17;;;;;;;14.85;9.65;;;4.40;99.90;;;;;;5033824;28;20175;-81
2022/03/04 05:29:43;;;;;;;20.02;11.10;;;4.30;99.90;;;;;;5033878;28;20160;-79
2022/03/04 05:32:10;;;;;;;18.52;10.40;;;4.40;99.90;;;;;;5033647;28;20210;-78
2022/03/04 05:34:37;;;;;;;18.90;10.35;;;4.50;99.90;;;;;;5034081;28;20536;-78
2022/03/04 05:37:03;;;;;;;19.13;9.63;;;4.30;99.90;;;;;;5034128;28;20167;-77
2022/03/04 05:39:29;;;;;;;16.48;10.13;;;4.20;99.90;;;;;;5033788;28;20651;-78
2022/03/04 05:41:54;;;;;;;17.33;10.40;;;4.20;99.90;;;;;;5033253;28;20203;-78
2022/03/04 05:44:20;;;;;;;16.08;9.88;;;4.20;99.90;;;;;;5033940;28;20168;-79
2022/03/04 05:46:46;;;;;;;15.27;9.95;;;4.20;99.90;;;;;;5033976;28;20164;-78
2022/03/04 05:49:11;;;;;;;16.45;9.60;;;4.20;99.90;;;;;;5034267;28;20625;-77
2022/03/04 05:51:37;;;;;;;17.85;9.77;;;4.00;99.90;;;;;;5033770;28;20574;-78
2022/03/04 05:54:03;;;;;;;13.45;10.48;;;3.80;99.90;;;;;;5033098;28;20192;-77
2022/03/04 05:56:29;;;;;;;16.25;10.18;;;3.90;99.90;;;;;;5033351;28;20184;-78
2022/03/04 05:58:54;;;;;;;26.67;11.25;;;4.00;99.90;;;;;;5034613;28;20620;-77
2022/03/04 06:01:20;;;;;;;23.23;11.32;;;4.10;99.90;;;;;;5033377;28;20164;-77
2022/03/04 06:03:46;;;;;;;21.77;11.45;;;4.00;99.90;;;;;;5032360;28;20171;-78
2022/03/04 06:06:12;;;;;;;15.38;9.93;;;4.00;99.90;;;;;;5034044;28;20573;-78
2022/03/04 06:08:38;;;;;;;18.38;11.50;;;4.00;99.90;;;;;;5033557;28;20638;-78
2022/03/04 06:11:06;;;;;;;23.75;9.75;;;4.00;99.90;;;;;;5033946;28;20183;-79
2022/03/04 06:13:32;;;;;;;25.95;10.38;;;4.10;99.90;;;;;;5034392;28;20175;-77
2022/03/04 06:15:57;;;;;;;24.98;9.40;;;4.10;99.90;;;;;;5034544;28;20210;-78
2022/03/04 06:18:23;;;;;;;20.65;10.68;;;4.10;99.90;;;;;;5035056;28;20164;-79
2022/03/04 06:20:49;;;;;;;23.27;9.93;;;3.90;99.90;;;;;;5033800;28;20683;-77
2022/03/04 06:23:14;;;;;;;23.05;10.60;;;3.90;99.90;;;;;;5034288;28;20176;-79
2022/03/04 06:25:40;;;;;;;17.40;9.85;;;3.90;99.90;;;;;;5034703;28;20200;-78
2022/03/04 06:28:06;;;;;;;19.17;9.48;;;4.00;99.90;;;;;;5032161;28;20169;-78
2022/03/04 06:30:36;;;;;;;15.00;10.48;;;4.00;99.90;;;;;;5032866;28;20644;-78
2022/03/04 06:35:46;;;;;;;16.63;10.93;;;3.90;99.90;;;;;;5032762;28;20298;-78
2022/03/04 06:38:13;;;;;;;27.58;12.57;;;4.00;99.90;;;;;;5032294;28;20167;-77
2022/03/04 06:40:40;;;;;;;21.45;11.80;;;4.10;99.90;;;;;;5032559;28;20171;-79
2022/03/04 06:43:06;;;;;;;47.90;13.63;;;4.20;99.90;;;;;;5032558;28;20172;-79
2022/03/04 06:45:32;;;;;;;21.33;12.27;;;4.20;99.90;;;;;;5032227;28;20187;-78
2022/03/04 06:47:58;;;;;;;22.40;11.27;;;4.30;99.90;;;;;;5031804;28;20250;-79
2022/03/04 06:50:24;;;;;;;17.63;10.20;;;4.30;99.90;;;;;;5031351;28;20704;-79
2022/03/04 06:52:53;;;;;;;28.50;9.82;;;4.20;99.90;;;;;;5030943;28;20302;-77
2022/03/04 06:55:19;;;;;;;17.20;10.90;;;4.20;99.90;;;;;;5032142;28;20232;-77
2022/03/04 06:57:46;;;;;;;18.17;11.02;;;4.30;99.90;;;;;;5031917;28;20172;-77
2022/03/04 07:00:12;;;;;;;17.40;10.75;;;4.40;99.90;;;;;;5030321;28;20172;-78
2022/03/04 07:02:38;;;;;;;25.35;11.45;;;4.30;99.90;;;;;;5032014;28;20254;-78
2022/03/04 07:05:05;;;;;;;16.45;10.38;;;4.30;99.90;;;;;;5032457;28;20176;-77
2022/03/04 07:07:31;;;;;;;15.07;10.95;;;4.30;99.90;;;;;;5036854;28;20168;-78
2022/03/04 07:09:56;;;;;;;14.98;10.85;;;4.50;99.90;;;;;;5037010;28;20160;-78
2022/03/04 07:12:22;;;;;;;13.30;9.82;;;4.60;99.90;;;;;;5036263;28;20272;-78
2022/03/04 07:14:48;;;;;;;28.63;10.68;;;4.60;99.90;;;;;;5036699;28;20188;-78
2022/03/04 07:17:14;;;;;;;19.17;11.80;;;4.70;99.90;;;;;;5036699;28;20637;-78
2022/03/04 07:19:40;;;;;;;21.40;11.98;;;4.60;99.90;;;;;;5036097;28;20172;-77
2022/03/04 07:22:06;;;;;;;22.38;11.55;;;4.50;99.90;;;;;;5035738;28;20171;-77
2022/03/04 07:24:32;;;;;;;17.25;10.45;;;4.50;99.90;;;;;;5035949;28;20207;-78
2022/03/04 07:26:58;;;;;;;30.17;11.48;;;4.50;99.90;;;;;;5036071;28;20163;-78
2022/03/04 07:29:24;;;;;;;38.72;10.90;;;4.60;99.90;;;;;;5036213;28;20506;-79
2022/03/04 07:31:53;;;;;;;19.35;10.88;;;4.60;99.90;;;;;;5036296;28;20203;-79
2022/03/04 07:34:22;;;;;;;28.15;11.45;;;4.70;99.90;;;;;;5036431;28;20251;-78
2022/03/04 07:36:48;;;;;;;26.95;10.75;;;4.80;99.90;;;;;;5034916;28;20176;-77
2022/03/04 07:39:14;;;;;;;30.05;12.48;;;4.90;99.90;;;;;;5035724;28;20230;-78
2022/03/04 07:41:39;;;;;;;17.23;10.85;;;4.90;99.90;;;;;;5035454;28;20164;-77
2022/03/04 07:44:05;;;;;;;20.90;11.65;;;4.80;99.90;;;;;;5035441;28;20176;-77
2022/03/04 07:46:31;;;;;;;32.70;12.18;;;4.80;99.90;;;;;;5035414;28;20210;-77
2022/03/04 07:48:57;;;;;;;18.88;11.75;;;4.90;99.90;;;;;;5035346;28;20259;-77
2022/03/04 07:51:23;;;;;;;46.05;12.23;;;5.00;99.90;;;;;;5035254;28;20196;-77
2022/03/04 07:53:48;;;;;;;29.08;14.05;;;5.20;99.90;;;;;;5035001;28;20175;-77
2022/03/04 07:56:14;;;;;;;27.17;11.07;;;5.40;99.90;;;;;;5035362;28;20271;-77
2022/03/04 07:58:40;;;;;;;21.90;12.07;;;5.50;99.90;;;;;;5035257;28;20531;-77
2022/03/04 08:01:05;;;;;;;20.20;11.50;;;5.30;99.90;;;;;;5035078;28;20244;-78
2022/03/04 08:03:31;;;;;;;28.02;10.10;;;5.30;99.90;;;;;;5034983;28;20179;-78
2022/03/04 08:05:57;;;;;;;21.05;11.15;;;5.30;99.90;;;;;;5035013;28;20188;-77
2022/03/04 08:08:23;;;;;;;24.15;10.75;;;5.30;99.90;;;;;;5034961;28;20175;-77
2022/03/04 08:10:48;;;;;;;25.00;11.32;;;5.40;99.90;;;;;;5033829;28;20175;-77
2022/03/04 08:13:14;;;;;;;18.25;10.88;;;5.40;99.90;;;;;;5035344;28;20632;-78
2022/03/04 08:15:40;;;;;;;24.25;12.45;;;5.60;99.90;;;;;;5035183;28;20253;-78
2022/03/04 08:18:06;;;;;;;21.45;12.02;;;5.60;99.90;;;;;;5032797;28;20176;-78
2022/03/04 08:20:32;;;;;;;37.92;12.65;;;5.80;99.90;;;;;;5034842;28;20175;-79
2022/03/04 08:22:58;;;;;;;15.88;11.05;;;5.90;99.90;;;;;;5035295;28;20164;-79
2022/03/04 08:25:24;;;;;;;18.52;11.20;;;5.90;99.90;;;;;;5035161;28;20203;-78
2022/03/04 08:27:50;;;;;;;19.13;11.30;;;5.90;99.90;;;;;;5035092;28;20553;-78
2022/03/04 08:30:16;;;;;;;23.42;12.55;;;6.00;99.90;;;;;;5034966;28;20172;-77
2022/03/04 08:32:42;;;;;;;17.95;11.48;;;6.00;99.90;;;;;;5035918;28;20207;-78
2022/03/04 08:35:08;;;;;;;23.65;12.65;;;6.20;99.90;;;;;;5039661;28;20210;-76
2022/03/04 08:37:34;;;;;;;19.63;11.90;;;6.30;99.90;;;;;;5040890;28;20227;-76
2022/03/04 08:40:00;;;;;;;17.50;11.55;;;6.20;99.90;;;;;;5035450;28;20191;-77
2022/03/04 08:42:26;;;;;;;25.30;12.10;;;6.30;99.90;;;;;;5033045;28;20696;-77
2022/03/04 08:44:54;;;;;;;24.13;11.85;;;6.30;99.90;;;;;;5034504;28;20270;-78
2022/03/04 08:47:21;;;;;;;17.67;11.27;;;6.50;99.90;;;;;;5034097;28;20176;-78
2022/03/04 08:49:48;;;;;;;21.80;11.30;;;6.50;99.90;;;;;;5032884;28;20172;-79
2022/03/04 08:52:14;;;;;;;33.83;11.95;;;6.60;99.90;;;;;;5034073;28;20235;-78
2022/03/04 08:54:39;;;;;;;65.55;13.90;;;6.60;99.90;;;;;;5034032;28;20580;-76
2022/03/04 08:57:05;;;;;;;52.15;11.57;;;6.70;99.90;;;;;;5034064;28;20267;-77
2022/03/04 08:59:31;;;;;;;24.17;11.77;;;6.80;99.90;;;;;;5034181;28;20168;-77
2022/03/04 09:01:57;;;;;;;24.42;11.07;;;6.80;99.90;;;;;;5033876;28;20255;-77
2022/03/04 09:04:23;;;;;;;32.72;11.88;;;6.80;99.90;;;;;;5033616;28;20610;-77
2022/03/04 09:06:49;;;;;;;33.80;11.23;;;6.90;99.90;;;;;;5033883;28;20179;-77
2022/03/04 09:09:15;;;;;;;33.45;11.20;;;6.90;99.90;;;;;;5033939;28;20167;-77
2022/03/04 09:11:41;;;;;;;19.15;10.27;;;7.00;99.90;;;;;;5033751;28;20203;-78
2022/03/04 09:14:06;;;;;;;24.38;11.25;;;7.20;99.90;;;;;;5033709;28;20372;-78
2022/03/04 09:16:32;;;;;;;19.45;10.93;;;7.20;99.90;;;;;;5033598;28;20226;-77
2022/03/04 09:18:59;;;;;;;16.58;10.73;;;7.40;99.90;;;;;;5034090;28;20523;-78
2022/03/04 09:21:24;;;;;;;31.02;13.05;;;7.50;99.90;;;;;;5033815;28;20579;-78
2022/03/04 09:23:50;;;;;;;19.27;11.25;;;7.60;99.90;;;;;;5033814;28;20164;-79
2022/03/04 09:26:16;;;;;;;18.40;12.23;;;7.70;99.90;;;;;;5033506;28;20226;-78
2022/03/04 09:28:41;;;;;;;19.90;11.70;;;7.80;99.90;;;;;;5033185;28;20247;-78
2022/03/04 09:31:07;;;;;;;14.05;10.15;;;7.90;99.90;;;;;;5033383;28;20170;-77
2022/03/04 09:33:33;;;;;;;18.13;11.18;;;8.20;99.90;;;;;;5033608;28;20172;-78
2022/03/04 09:36:02;;;;;;;26.65;11.15;;;8.20;99.90;;;;;;5033145;28;20250;-78
2022/03/04 09:38:28;;;;;;;16.83;9.95;;;8.20;99.90;;;;;;5033722;28;20286;-77
2022/03/04 09:40:53;;;;;;;39.53;10.68;;;8.40;99.90;;;;;;5033232;28;20618;-78
2022/03/04 09:43:22;;;;;;;29.63;11.85;;;8.50;99.90;;;;;;5033498;28;20183;-77
2022/03/04 09:45:49;;;;;;;22.65;9.63;;;8.60;99.90;;;;;;5033308;28;20186;-78
2022/03/04 09:48:16;;;;;;;12.90;10.00;;;8.80;99.90;;;;;;5033289;28;20613;-79
2022/03/04 09:50:45;;;;;;;16.83;10.40;;;8.90;99.90;;;;;;5033403;28;20166;-78
2022/03/04 09:53:11;;;;;;;22.70;10.32;;;9.10;99.90;;;;;;5033145;28;20207;-79
2022/03/04 09:55:41;;;;;;;17.98;11.20;;;9.30;99.90;;;;;;5033333;28;20271;-78
2022/03/04 09:58:11;;;;;;;25.67;10.90;;;9.30;99.90;;;;;;5033018;28;20179;-78
2022/03/04 10:00:38;;;;;;;24.25;10.75;;;9.30;99.90;;;;;;5033099;28;20641;-78
2022/03/04 10:03:05;;;;;;;23.08;10.77;;;9.50;99.90;;;;;;5033308;28;20242;-78
2022/03/04 10:05:31;;;;;;;23.50;11.05;;;9.80;99.90;;;;;;5032923;28;20187;-78
2022/03/04 10:07:56;;;;;;;18.52;11.50;;;9.80;99.90;;;;;;5031836;28;20176;-79
2022/03/04 10:10:22;;;;;;;20.30;10.63;;;9.70;99.90;;;;;;5033431;28;20164;-85
2022/03/04 10:12:55;;;;;;;22.55;10.75;;;9.80;99.90;;;;;;5032061;28;20203;-85
2022/03/04 10:15:22;;;;;;;17.45;11.13;;;9.80;99.90;;;;;;5032398;28;20652;-80
2022/03/04 10:17:58;;;;;;;19.30;11.20;;;9.80;99.90;;;;;;5031199;28;20175;-82
2022/03/04 10:20:35;;;;;;;23.90;10.82;;;9.90;99.90;;;;;;5032889;28;20217;-80
2022/03/04 10:23:14;;;;;;;16.55;10.48;;;9.90;99.90;;;;;;5032510;28;20167;-80
2022/03/04 10:25:44;;;;;;;25.02;10.77;;;10.00;99.90;;;;;;5032483;28;20286;-79
2022/03/04 10:28:11;;;;;;;21.33;10.30;;;10.10;99.90;;;;;;5032360;28;20164;-79
2022/03/04 10:30:36;;;;;;;16.10;10.82;;;10.20;99.90;;;;;;5031826;28;20175;-77
2022/03/04 10:33:09;;;;;;;25.33;12.80;;;10.30;99.90;;;;;;5032302;28;20294;-79
2022/03/04 10:35:36;;;;;;;23.25;12.25;;;10.30;99.90;;;;;;5032644;28;20195;-79
2022/03/04 10:38:04;;;;;;;41.53;11.98;;;10.50;99.90;;;;;;5032291;28;20254;-78
2022/03/04 10:40:43;;;;;;;17.88;11.75;;;10.60;99.90;;;;;;5031794;28;20245;-78
2022/03/04 10:43:09;;;;;;;19.73;11.05;;;10.70;99.90;;;;;;5032160;28;20171;-78
2022/03/04 10:45:44;;;;;;;23.52;11.00;;;10.70;99.90;;;;;;5031934;28;20187;-80
2022/03/04 10:48:11;;;;;;;32.15;12.75;;;10.80;99.90;;;;;;5032142;28;20580;-81
2022/03/04 10:50:36;;;;;;;34.42;13.00;;;10.90;99.90;;;;;;5030984;28;20573;-78
2022/03/04 10:53:03;;;;;;;16.55;11.43;;;11.00;99.50;;;;;;5032130;28;20270;-77
2022/03/04 10:55:41;;;;;;;25.23;11.82;;;10.90;99.70;;;;;;5032037;28;20250;-77
2022/03/04 10:58:34;;;;;;;18.35;10.95;;;10.90;99.60;;;;;;5032243;28;20172;-78
2022/03/04 11:01:08;;;;;;;23.73;11.68;;;11.20;98.90;;;;;;5032574;28;20180;-81
2022/03/04 11:03:34;;;;;;;15.88;11.35;;;11.30;98.00;;;;;;5031336;28;20577;-77
2022/03/04 11:06:06;;;;;;;19.83;12.02;;;11.20;98.70;;;;;;5032492;28;20202;-77
2022/03/04 11:08:32;;;;;;;23.27;12.48;;;11.20;98.40;;;;;;5032100;28;20171;-77
2022/03/04 11:10:58;;;;;;;19.77;11.25;;;11.20;98.60;;;;;;5031996;28;20700;-79
2022/03/04 11:13:24;;;;;;;16.92;12.40;;;11.00;98.70;;;;;;5031310;28;20172;-84
2022/03/04 11:15:52;;;;;;;26.05;11.95;;;11.00;98.60;;;;;;5030315;28;20198;-76
2022/03/04 11:18:20;;;;;;;21.33;11.40;;;11.20;98.60;;;;;;5031919;28;20168;-77
2022/03/04 11:20:49;;;;;;;23.30;11.88;;;11.30;98.50;;;;;;5032160;28;20157;-78
2022/03/04 11:23:36;;;;;;;19.88;11.73;;;11.50;98.70;;;;;;5032036;28;20172;-79
2022/03/04 11:26:09;;;;;;;23.63;12.52;;;11.50;98.20;;;;;;5031698;28;20195;-79
2022/03/04 11:28:41;;;;;;;18.58;12.52;;;11.40;98.40;;;;;;5032476;28;20176;-77
2022/03/04 11:31:08;;;;;;;22.25;12.68;;;11.40;98.40;;;;;;5031505;28;20168;-79
2022/03/04 11:33:35;;;;;;;21.42;12.50;;;11.50;98.20;;;;;;5031464;28;20172;-79
2022/03/04 11:36:07;;;;;;;23.50;12.45;;;11.60;98.00;;;;;;5033094;28;20199;-78
2022/03/04 11:38:48;;;;;;;20.17;11.93;;;11.50;97.50;;;;;;5032529;28;20168;-79
2022/03/04 11:41:20;;;;;;;16.70;12.02;;;11.50;97.50;;;;;;5030236;28;20175;-79
2022/03/04 11:43:50;;;;;;;33.22;13.07;;;11.70;97.40;;;;;;5031840;28;20690;-78
2022/03/04 11:46:43;;;;;;;21.13;15.73;;;11.90;97.30;;;;;;5031191;28;20192;-79
2022/03/04 11:49:38;;;;;;;23.85;12.52;;;12.00;97.30;;;;;;5033451;28;20168;-78
2022/03/04 11:52:10;;;;;;;20.50;13.25;;;12.00;97.40;;;;;;5032687;28;20660;-78
2022/03/04 11:54:39;;;;;;;18.88;12.02;;;12.00;97.20;;;;;;5035342;28;20546;-80
2022/03/04 11:57:19;;;;;;;32.58;12.90;;;11.90;97.20;;;;;;5035208;28;20298;-78
2022/03/04 11:59:49;;;;;;;24.90;12.45;;;11.90;97.30;;;;;;5035453;28;20570;-78
2022/03/04 12:02:36;;;;;;;30.15;12.57;;;12.10;96.70;;;;;;5035370;28;20168;-77
2022/03/04 12:05:21;;;;;;;27.60;13.48;;;12.10;96.60;;;;;;5034637;28;20188;-78
2022/03/04 12:08:05;;;;;;;21.10;12.73;;;12.20;97.00;;;;;;5034935;28;20199;-77
2022/03/04 12:10:40;;;;;;;17.73;12.27;;;12.10;96.80;;;;;;5035258;28;20172;-78
2022/03/04 12:13:10;;;;;;;25.63;13.02;;;12.00;96.50;;;;;;5034479;28;20695;-77
2022/03/04 12:15:39;;;;;;;23.90;13.30;;;12.20;96.40;;;;;;5035503;28;20545;-77
2022/03/04 12:18:24;;;;;;;25.35;13.20;;;12.20;96.30;;;;;;5034599;28;20168;-77
2022/03/04 12:20:56;;;;;;;27.40;13.30;;;12.10;95.50;;;;;;5034818;28;20172;-78
2022/03/04 12:23:46;;;;;;;22.98;12.73;;;12.10;95.90;;;;;;5035056;28;20172;-82
2022/03/04 12:26:13;;;;;;;20.67;11.60;;;12.10;96.30;;;;;;5021263;28;20274;-81
2022/03/04 12:28:50;;;;;;;27.98;12.50;;;12.10;95.60;;;;;;5014420;28;20199;-77
2022/03/04 12:31:20;;;;;;;26.08;12.45;;;12.10;96.50;;;;;;5025382;28;20168;-80
2022/03/04 12:33:52;;;;;;;21.38;13.70;;;12.10;96.50;;;;;;5035600;28;20179;-84
2022/03/04 12:36:18;;;;;;;20.50;12.30;;;12.10;96.80;;;;;;5018225;28;20275;-80
2022/03/04 12:38:45;;;;;;;18.10;12.50;;;12.10;96.60;;;;;;5037567;28;20176;-80